Time;durP1;ratioP1;P1;durP2;ratioP2;P2;SDS_P1;SDS_P2;PMS_P1;PMS_P2;Temp;Humidity;BMP_temperature;BMP_pressure;BME280_temperature;BME280_humidity;BME280_pressure;Samples;Min_cycle;Max_cycle;Signal;HPM_P1;HPM_P2
2023/01/04 00:01:30;;;;;;;44.00;25.50;;;;;;;2.03;100.00;94087.22;5090929;28;20044;-70
2023/01/04 00:03:58;;;;;;;40.55;24.70;;;;;;;2.06;100.00;94083.59;5074914;28;20049;-70
2023/01/04 00:06:24;;;;;;;35.80;23.60;;;;;;;2.05;100.00;94082.81;5087020;28;20093;-70
2023/01/04 00:08:51;;;;;;;42.00;25.60;;;;;;;2.08;100.00;94082.53;5090410;28;20044;-70
2023/01/04 00:11:19;;;;;;;37.08;23.77;;;;;;;2.17;100.00;94075.06;5091289;28;20048;-69
2023/01/04 00:13:47;;;;;;;39.72;23.65;;;;;;;2.28;100.00;94085.03;5091619;28;20048;-69
2023/01/04 00:16:16;;;;;;;37.22;24.00;;;;;;;2.36;100.00;94086.91;5090612;28;20105;-69
2023/01/04 00:18:43;;;;;;;40.53;23.33;;;;;;;2.37;100.00;94089.28;5090505;28;20048;-69
2023/01/04 00:21:13;;;;;;;36.58;23.23;;;;;;;2.41;100.00;94079.69;5090394;28;20090;-69
2023/01/04 00:23:41;;;;;;;34.35;22.08;;;;;;;2.47;100.00;94089.28;5091120;28;20117;-69
2023/01/04 00:26:10;;;;;;;50.83;27.40;;;;;;;2.53;100.00;94096.31;5090812;28;20585;-69
2023/01/04 00:28:37;;;;;;;50.85;30.00;;;;;;;2.51;100.00;94094.88;5090895;28;20074;-69
2023/01/04 00:31:04;;;;;;;52.13;32.25;;;;;;;2.51;100.00;94089.78;5090813;28;20097;-69
2023/01/04 00:33:32;;;;;;;59.13;33.30;;;;;;;2.59;100.00;94089.88;5090926;28;20048;-69
2023/01/04 00:36:04;;;;;;;54.97;33.20;;;;;;;2.66;100.00;94085.06;5090460;28;20554;-69
2023/01/04 00:38:32;;;;;;;64.15;33.85;;;;;;;2.63;100.00;94078.53;5088861;28;20056;-70
2023/01/04 00:40:59;;;;;;;43.80;27.48;;;;;;;2.79;100.00;94092.38;5069738;28;20044;-70
2023/01/04 00:43:26;;;;;;;45.42;28.60;;;;;;;2.84;100.00;94085.16;5069849;28;20447;-70
2023/01/04 00:45:53;;;;;;;57.05;32.92;;;;;;;2.78;100.00;94073.03;5069898;28;20049;-70
2023/01/04 00:48:20;;;;;;;85.43;42.45;;;;;;;2.83;100.00;94093.69;5069956;28;20044;-70
2023/01/04 00:50:48;;;;;;;78.07;40.80;;;;;;;2.88;100.00;94094.06;5071663;28;20044;-70
2023/01/04 00:53:16;;;;;;;81.13;45.60;;;;;;;2.89;100.00;94093.13;5069669;28;20094;-70
2023/01/04 00:55:44;;;;;;;79.68;42.42;;;;;;;2.94;100.00;94085.91;5070016;28;20121;-70
2023/01/04 00:58:11;;;;;;;77.65;44.30;;;;;;;2.93;100.00;94074.13;5074638;28;20051;-70
2023/01/04 01:00:39;;;;;;;79.75;43.30;;;;;;;3.08;100.00;94086.38;5081155;28;20048;-72
2023/01/04 01:03:09;;;;;;;94.07;47.03;;;;;;;2.96;100.00;94029.13;5077563;28;20053;-71
2023/01/04 01:05:36;;;;;;;134.32;55.28;;;;;;;3.48;100.00;94082.66;5069851;28;20073;-71
2023/01/04 01:08:23;;;;;;;47.17;29.83;;;;;;;3.81;100.00;94051.66;5069647;28;20114;-71
2023/01/04 01:10:52;;;;;;;68.15;35.67;;;;;;;4.17;100.00;94083.84;5069605;28;20045;-71
2023/01/04 01:13:19;;;;;;;67.65;33.90;;;;;;;4.42;100.00;94089.09;5069425;28;20045;-70
2023/01/04 01:15:46;;;;;;;89.18;36.78;;;;;;;4.79;100.00;94079.59;5069377;28;20106;-70
2023/01/04 01:18:13;;;;;;;110.40;40.38;;;;;;;5.12;100.00;94082.28;5069538;28;20109;-71
2023/01/04 01:20:44;;;;;;;78.72;33.28;;;;;;;5.25;100.00;94086.94;5069237;28;20048;-71
2023/01/04 01:23:12;;;;;;;32.80;20.60;;;;;;;5.43;100.00;94071.56;5069187;28;20102;-71
2023/01/04 01:25:39;;;;;;;46.95;24.42;;;;;;;5.69;100.00;94080.03;5069194;28;20319;-71
2023/01/04 01:28:08;;;;;;;73.70;32.38;;;;;;;5.78;100.00;94073.97;5068979;28;20049;-71
2023/01/04 01:30:35;;;;;;;47.00;24.48;;;;;;;5.89;100.00;94078.75;5069011;28;20517;-70
2023/01/04 01:33:01;;;;;;;74.35;40.30;;;;;;;5.94;100.00;94080.84;5069396;28;20052;-70
2023/01/04 01:35:28;;;;;;;37.92;24.35;;;;;;;5.99;100.00;94065.06;5068834;28;20489;-71
2023/01/04 01:37:55;;;;;;;25.45;17.75;;;;;;;6.02;100.00;94067.31;5068846;28;20086;-71
2023/01/04 01:40:21;;;;;;;21.88;17.67;;;;;;;5.98;100.00;94077.00;5069366;28;20378;-71
2023/01/04 01:42:48;;;;;;;23.38;16.30;;;;;;;6.07;100.00;94075.28;5068847;28;20036;-71
2023/01/04 01:45:34;;;;;;;22.17;16.25;;;;;;;6.09;100.00;94073.38;5069007;28;20117;-71
2023/01/04 01:48:06;;;;;;;24.70;16.73;;;;;;;6.10;100.00;94074.16;5068830;28;20129;-70
2023/01/04 01:50:36;;;;;;;22.10;15.43;;;;;;;6.15;100.00;94065.09;5070344;28;20508;-70
2023/01/04 01:53:07;;;;;;;23.30;16.52;;;;;;;6.18;100.00;94065.72;5068463;28;20056;-70
2023/01/04 01:55:35;;;;;;;27.08;17.30;;;;;;;6.23;100.00;94063.47;5068945;28;20044;-72
2023/01/04 01:58:05;;;;;;;35.70;20.33;;;;;;;6.20;100.00;94067.13;5068646;28;20094;-71
2023/01/04 02:00:33;;;;;;;33.42;20.60;;;;;;;6.27;100.00;94060.47;5068927;28;20404;-71
2023/01/04 02:03:10;;;;;;;32.28;19.58;;;;;;;6.21;100.00;94052.66;5068454;28;20045;-70
2023/01/04 02:05:37;;;;;;;34.15;20.58;;;;;;;6.23;100.00;94055.81;5068825;28;20510;-70
2023/01/04 02:08:06;;;;;;;32.60;19.88;;;;;;;6.21;100.00;94050.09;5068686;28;20052;-70
2023/01/04 02:10:33;;;;;;;35.67;22.35;;;;;;;6.32;100.00;94061.69;5068716;28;20102;-70
2023/01/04 02:13:05;;;;;;;30.38;20.55;;;;;;;6.30;100.00;94055.97;5068617;28;20048;-70
2023/01/04 02:15:48;;;;;;;32.40;20.27;;;;;;;6.19;100.00;94057.09;5068741;28;20040;-71
2023/01/04 02:18:22;;;;;;;26.50;19.52;;;;;;;6.12;100.00;94054.41;5068776;28;20043;-71
2023/01/04 02:20:54;;;;;;;26.02;19.17;;;;;;;6.12;100.00;94054.41;5068475;28;20097;-70
2023/01/04 02:23:59;;;;;;;24.25;18.48;;;;;;;6.12;100.00;94052.63;5068523;28;20098;-70
2023/01/04 02:27:03;;;;;;;31.13;20.95;;;;;;;6.07;100.00;94054.88;5068481;28;20040;-69
2023/01/04 02:30:09;;;;;;;29.63;21.15;;;;;;;5.77;100.00;94058.81;5068502;28;20102;-70
2023/01/04 02:32:43;;;;;;;;;;;;;;;5.05;100.00;94069.34;5053846;28;20041;-70
2023/01/04 02:35:17;;;;;;;39.15;25.10;;;;;;;5.00;100.00;94061.38;5072685;28;19966;-70
2023/01/04 02:37:50;;;;;;;35.13;24.85;;;;;;;4.76;100.00;94057.78;5072607;28;20102;-71
2023/01/04 02:40:23;;;;;;;40.70;28.75;;;;;;;4.74;100.00;94046.97;5072209;28;20447;-71
2023/01/04 02:45:49;;;;;;;38.22;25.23;;;;;;;4.92;100.00;94048.63;5072494;28;20047;-69
2023/01/04 02:51:01;;;;;;;;;;;;;;;4.52;100.00;94048.28;5074626;28;20063;-71
2023/01/04 02:53:31;;;;;;;31.13;22.35;;;;;;;4.49;100.00;94051.16;5072278;28;19983;-69
2023/01/04 02:56:12;;;;;;;32.78;22.42;;;;;;;4.54;100.00;94047.19;5071748;28;20052;-68
2023/01/04 02:59:00;;;;;;;42.75;27.17;;;;;;;4.32;100.00;94045.97;5071839;28;20082;-70
2023/01/04 03:07:27;;;;;;;48.63;30.02;;;;;;;4.15;100.00;94034.88;5071701;28;20087;-71
2023/01/04 03:10:04;;;;;;;46.13;28.05;;;;;;;4.23;100.00;94041.78;5072046;28;20058;-71
2023/01/04 03:12:38;;;;;;;57.72;28.58;;;;;;;4.32;100.00;94045.16;5071828;28;20040;-69
2023/01/04 03:15:11;;;;;;;52.13;30.08;;;;;;;4.37;100.00;94042.97;5071932;28;20098;-69
2023/01/04 03:17:46;;;;;;;50.78;28.35;;;;;;;4.50;100.00;94048.44;5071389;28;20501;-71
2023/01/04 03:20:17;;;;;;;33.47;23.30;;;;;;;4.68;100.00;94043.28;5071817;28;20045;-70
2023/01/04 03:36:54;;;;;;;21.85;15.88;;;;;;;5.59;100.00;94045.28;5092242;28;20059;-69
2023/01/04 03:50:57;;;;;;;20.95;14.63;;;;;;;5.84;100.00;94044.50;5091798;28;20105;-69
2023/01/04 03:53:27;;;;;;;22.90;16.25;;;;;;;5.85;100.00;94041.81;5091805;28;20098;-69
2023/01/04 03:55:56;;;;;;;25.27;17.45;;;;;;;5.96;100.00;94045.78;5078845;28;20106;-69
2023/01/04 03:58:23;;;;;;;24.05;16.70;;;;;;;5.94;100.00;94049.44;5091782;28;20191;-69
2023/01/04 04:00:50;;;;;;;23.88;17.02;;;;;;;5.88;100.00;94049.13;5091559;28;20044;-69
2023/01/04 04:03:16;;;;;;;23.55;18.00;;;;;;;5.95;100.00;94053.56;5091665;28;20109;-69
2023/01/04 04:08:31;;;;;;;28.83;18.95;;;;;;;5.91;100.00;94053.09;5091413;28;20055;-69
2023/01/04 04:11:29;;;;;;;40.45;21.88;;;;;;;5.78;100.00;94061.22;5091343;28;20568;-69
2023/01/04 04:13:50;;;;;;;35.60;22.75;;;;;;;5.68;100.00;94066.47;5091211;28;20044;-69
2023/01/04 04:16:17;;;;;;;62.05;35.97;;;;;;;4.91;100.00;94050.38;5091418;28;20048;-70
2023/01/04 04:18:43;;;;;;;61.65;32.17;;;;;;;4.95;100.00;94073.78;5091453;28;20496;-69
2023/01/04 04:21:10;;;;;;;52.95;32.55;;;;;;;4.88;100.00;94076.16;5091301;28;20048;-69
2023/01/04 04:23:38;;;;;;;68.65;36.67;;;;;;;4.86;100.00;94074.72;5091219;28;20052;-69
2023/01/04 04:26:05;;;;;;;68.72;38.95;;;;;;;4.83;100.00;94065.63;5091091;28;20059;-69
2023/01/04 04:28:32;;;;;;;72.05;40.00;;;;;;;4.77;100.00;94069.56;5091340;28;20045;-70
2023/01/04 04:30:59;;;;;;;61.22;35.28;;;;;;;4.72;100.00;94073.53;5090992;28;20101;-70
2023/01/04 04:33:25;;;;;;;63.38;37.40;;;;;;;4.60;100.00;94068.69;5090906;28;20089;-70
2023/01/04 04:35:53;;;;;;;57.92;36.70;;;;;;;4.52;100.00;94058.47;5091337;28;20093;-70
2023/01/04 04:38:21;;;;;;;64.65;37.00;;;;;;;4.39;100.00;94064.75;5090930;28;20101;-70
2023/01/04 04:43:44;;;;;;;67.60;44.13;;;;;;;4.38;100.00;94070.81;5022741;28;20449;-70
2023/01/04 04:46:11;;;;;;;64.47;44.17;;;;;;;4.34;100.00;94074.59;5068247;28;20048;-70
2023/01/04 04:48:38;;;;;;;62.22;38.25;;;;;;;4.22;100.00;94070.69;5090362;28;20091;-70
2023/01/04 04:51:05;;;;;;;66.22;37.65;;;;;;;4.14;100.00;94077.34;5090870;28;20052;-70
2023/01/04 04:53:32;;;;;;;67.70;39.97;;;;;;;4.16;100.00;94078.94;5090742;28;20100;-70
2023/01/04 04:56:00;;;;;;;66.32;40.08;;;;;;;4.23;100.00;94078.19;5089767;28;20044;-70
2023/01/04 04:58:27;;;;;;;67.88;40.45;;;;;;;4.28;100.00;94076.00;5090510;28;20525;-70
2023/01/04 05:00:53;;;;;;;67.15;40.40;;;;;;;4.36;100.00;94090.50;5090736;28;20044;-70
2023/01/04 05:03:20;;;;;;;60.08;40.50;;;;;;;4.37;100.00;94089.56;5090380;28;20048;-70
2023/01/04 05:05:47;;;;;;;67.18;41.53;;;;;;;4.40;100.00;94083.38;5090564;28;20878;-70
2023/01/04 05:08:13;;;;;;;68.97;41.22;;;;;;;4.37;100.00;94089.56;5090158;28;20105;-70
2023/01/04 05:10:40;;;;;;;74.43;42.92;;;;;;;4.23;100.00;94090.91;5089932;28;20454;-70
2023/01/04 05:13:11;;;;;;;77.75;45.95;;;;;;;4.26;100.00;94097.44;5090185;28;20052;-70
2023/01/04 05:15:40;;;;;;;77.18;43.15;;;;;;;4.32;100.00;94098.56;5090203;28;20062;-70
2023/01/04 05:18:09;;;;;;;87.63;50.00;;;;;;;4.22;100.00;94101.22;5090163;28;20458;-70
2023/01/04 05:20:36;;;;;;;78.95;46.90;;;;;;;4.03;100.00;94105.50;5089915;28;20577;-70
2023/01/04 05:23:03;;;;;;;81.63;51.22;;;;;;;4.08;100.00;94097.47;5090178;28;20101;-70
2023/01/04 05:25:29;;;;;;;89.97;51.15;;;;;;;4.09;100.00;94099.06;5089734;28;20044;-70
2023/01/04 05:27:56;;;;;;;86.35;52.47;;;;;;;4.12;100.00;94094.47;5089736;28;20055;-70
2023/01/04 05:33:09;;;;;;;84.88;48.72;;;;;;;4.32;100.00;94106.22;5076726;28;20055;-70
2023/01/04 05:35:36;;;;;;;84.50;49.35;;;;;;;4.35;100.00;94109.25;5089912;28;20097;-70
2023/01/04 05:38:03;;;;;;;92.15;57.72;;;;;;;4.39;100.00;94108.00;5089907;28;20097;-70
2023/01/04 05:40:29;;;;;;;100.10;59.75;;;;;;;4.49;100.00;94107.91;5089731;28;20443;-70
2023/01/04 05:42:56;;;;;;;87.28;54.67;;;;;;;4.49;100.00;94107.13;5089764;28;20044;-70
2023/01/04 05:45:24;;;;;;;78.93;46.47;;;;;;;4.55;100.00;94109.06;5089700;28;20103;-70
2023/01/04 05:47:52;;;;;;;68.53;41.97;;;;;;;4.59;100.00;94110.38;5089760;28;20040;-70
2023/01/04 05:50:20;;;;;;;78.72;46.70;;;;;;;4.72;100.00;94111.72;5089207;28;20439;-70
2023/01/04 05:52:47;;;;;;;86.65;54.30;;;;;;;4.68;100.00;94118.84;5089426;28;20048;-71
2023/01/04 05:55:14;;;;;;;86.03;49.28;;;;;;;4.52;100.00;94107.63;5089117;28;20048;-71
2023/01/04 05:57:41;;;;;;;73.88;44.40;;;;;;;4.41;100.00;94121.38;5089257;28;20572;-70
2023/01/04 06:00:09;;;;;;;68.25;41.78;;;;;;;4.34;100.00;94109.38;5089120;28;20048;-70
2023/01/04 06:02:37;;;;;;;77.65;42.72;;;;;;;4.38;100.00;94103.06;5089244;28;20048;-70
2023/01/04 06:05:05;;;;;;;78.90;47.20;;;;;;;4.37;100.00;94112.47;5089421;28;20090;-70
2023/01/04 06:07:32;;;;;;;72.70;45.08;;;;;;;4.46;100.00;94110.75;5088681;28;20097;-70
2023/01/04 06:09:59;;;;;;;72.60;43.42;;;;;;;4.48;100.00;94115.69;5089359;28;20405;-70
2023/01/04 06:12:25;;;;;;;77.30;43.97;;;;;;;4.50;100.00;94109.50;5089466;28;20044;-70
2023/01/04 06:14:52;;;;;;;68.63;39.47;;;;;;;4.58;100.00;94110.50;5089299;28;20048;-71
2023/01/04 06:17:19;;;;;;;48.58;31.20;;;;;;;4.64;100.00;94112.47;5088863;28;20056;-71
2023/01/04 06:19:47;;;;;;;46.75;30.00;;;;;;;4.73;100.00;94114.09;5088995;28;20043;-70
2023/01/04 06:22:14;;;;;;;41.28;25.77;;;;;;;4.77;100.00;94124.78;5089514;28;20036;-70
2023/01/04 06:24:41;;;;;;;103.97;61.58;;;;;;;4.68;100.00;94124.72;5088736;28;20499;-70
2023/01/04 06:27:08;;;;;;;82.63;48.17;;;;;;;4.61;100.00;94122.91;5089362;28;20105;-70
2023/01/04 06:29:34;;;;;;;58.40;36.80;;;;;;;4.63;100.00;94132.00;5088857;28;20093;-71
2023/01/04 06:32:01;;;;;;;54.53;35.33;;;;;;;4.58;100.00;94118.16;5089128;28;20044;-71
2023/01/04 06:34:28;;;;;;;49.45;32.08;;;;;;;4.78;100.00;94132.25;5088893;28;20097;-70
2023/01/04 06:36:56;;;;;;;46.92;31.02;;;;;;;4.89;100.00;94135.47;5088822;28;20492;-70
2023/01/04 06:39:22;;;;;;;92.95;57.38;;;;;;;4.78;100.00;94144.19;5088774;28;20097;-70
2023/01/04 06:41:49;;;;;;;71.82;43.38;;;;;;;4.67;100.00;94140.13;5089185;28;20408;-70
2023/01/04 06:44:16;;;;;;;56.13;35.88;;;;;;;4.71;100.00;94138.13;5088842;28;20093;-70
2023/01/04 06:46:42;;;;;;;69.63;45.08;;;;;;;4.75;100.00;94136.84;5088822;28;20044;-70
2023/01/04 06:49:09;;;;;;;72.10;43.50;;;;;;;4.81;100.00;94138.78;5088732;28;20048;-70
2023/01/04 06:51:36;;;;;;;76.90;51.58;;;;;;;4.80;100.00;94142.28;5088745;28;20048;-71
2023/01/04 06:54:04;;;;;;;72.78;48.88;;;;;;;4.77;100.00;94145.94;5088683;28;20102;-71
2023/01/04 06:56:32;;;;;;;91.38;62.88;;;;;;;4.70;100.00;94132.22;5089175;28;20052;-70
2023/01/04 06:58:59;;;;;;;79.68;53.50;;;;;;;4.71;100.00;94122.84;5088369;28;20131;-71
2023/01/04 07:01:26;;;;;;;71.55;48.90;;;;;;;4.95;100.00;94139.97;5089003;28;20052;-70
2023/01/04 07:03:52;;;;;;;62.72;41.22;;;;;;;5.01;100.00;94144.47;5088900;28;20101;-70
2023/01/04 07:06:19;;;;;;;58.60;37.63;;;;;;;5.14;100.00;94145.81;5076036;28;20102;-70
2023/01/04 07:08:46;;;;;;;54.28;36.08;;;;;;;5.21;100.00;94142.50;5082859;28;20040;-70
2023/01/04 07:11:14;;;;;;;47.28;32.47;;;;;;;5.32;100.00;94149.06;5088499;28;20055;-70
2023/01/04 07:13:40;;;;;;;46.25;31.95;;;;;;;5.40;100.00;94150.84;5088505;28;20047;-70
2023/01/04 07:16:07;;;;;;;45.65;31.33;;;;;;;5.48;100.00;94152.63;5088439;28;20553;-70
2023/01/04 07:18:34;;;;;;;40.88;26.38;;;;;;;5.55;100.00;94157.91;5089884;28;20462;-70
2023/01/04 07:21:01;;;;;;;36.40;25.48;;;;;;;5.58;100.00;94158.38;5092258;28;20048;-70
2023/01/04 07:23:28;;;;;;;35.03;25.90;;;;;;;5.56;100.00;94164.59;5092318;28;20381;-70
2023/01/04 07:25:54;;;;;;;38.35;27.33;;;;;;;5.61;100.00;94158.06;5092233;28;20090;-70
2023/01/04 07:31:07;;;;;;;55.33;36.83;;;;;;;5.66;100.00;94167.00;5040674;28;20266;-70
2023/01/04 07:33:34;;;;;;;57.35;38.33;;;;;;;5.74;100.00;94167.03;5091907;28;20035;-70
2023/01/04 07:36:03;;;;;;;46.80;31.55;;;;;;;5.45;100.00;94102.75;5091768;28;20056;-70
2023/01/04 07:38:30;;;;;;;45.67;30.58;;;;;;;6.00;100.00;94163.56;5092157;28;20052;-70
2023/01/04 07:40:56;;;;;;;45.55;30.27;;;;;;;6.06;100.00;94165.50;5091936;28;20048;-70
2023/01/04 07:43:25;;;;;;;45.13;31.98;;;;;;;6.09;100.00;94165.22;5091976;28;20052;-70
2023/01/04 07:45:52;;;;;;;57.55;36.47;;;;;;;6.14;100.00;94162.16;5091907;28;20101;-70
2023/01/04 07:48:19;;;;;;;70.35;47.80;;;;;;;6.26;100.00;94162.66;5091981;28;20047;-70
2023/01/04 07:50:45;;;;;;;73.70;49.25;;;;;;;6.13;100.00;94135.88;5091920;28;20047;-70
2023/01/04 07:53:12;;;;;;;68.65;49.03;;;;;;;6.44;100.00;94166.81;5091614;28;20105;-70
2023/01/04 07:55:39;;;;;;;76.05;51.15;;;;;;;6.49;100.00;94173.00;5091319;28;20086;-70
2023/01/04 07:58:06;;;;;;;70.70;47.60;;;;;;;6.60;100.00;94177.00;5091670;28;20058;-70
2023/01/04 08:00:34;;;;;;;37.15;25.85;;;;;;;6.36;100.00;94175.25;5091617;28;20133;-70
2023/01/04 08:03:00;;;;;;;32.97;22.33;;;;;;;6.18;100.00;94171.13;5091616;28;20048;-70
2023/01/04 08:05:27;;;;;;;30.70;20.35;;;;;;;6.16;100.00;94178.13;5091601;28;20036;-70
2023/01/04 08:07:56;;;;;;;26.88;18.05;;;;;;;6.13;100.00;94176.69;5091813;28;20044;-70
2023/01/04 08:10:23;;;;;;;30.05;19.00;;;;;;;6.10;100.00;94171.09;5091100;28;20044;-70
2023/01/04 08:12:50;;;;;;;21.67;15.63;;;;;;;6.12;100.00;94169.19;5091822;28;20423;-70
2023/01/04 08:15:17;;;;;;;34.30;23.80;;;;;;;6.18;100.00;94160.09;5091729;28;20055;-70
2023/01/04 08:17:45;;;;;;;56.55;36.40;;;;;;;6.44;100.00;94177.84;5091012;28;20093;-70
2023/01/04 08:20:12;;;;;;;65.55;38.85;;;;;;;6.50;100.00;94179.75;5091546;28;20470;-70
2023/01/04 08:22:38;;;;;;;48.35;32.03;;;;;;;6.54;100.00;94177.66;5090801;28;20090;-70
2023/01/04 08:25:06;;;;;;;55.03;34.85;;;;;;;6.58;100.00;94167.94;5091123;28;20066;-70
2023/01/04 08:27:33;;;;;;;61.08;37.10;;;;;;;6.66;100.00;94173.00;5077623;28;20106;-70
2023/01/04 08:29:59;;;;;;;60.80;37.65;;;;;;;6.61;100.00;94183.72;5085770;28;20051;-70
2023/01/04 08:32:26;;;;;;;56.38;36.05;;;;;;;6.51;100.00;94167.75;5077062;28;20044;-70
2023/01/04 08:34:54;;;;;;;55.85;35.17;;;;;;;6.64;100.00;94180.03;5090944;28;20048;-70
2023/01/04 08:37:21;;;;;;;59.28;34.97;;;;;;;6.77;100.00;94184.66;5077485;28;20040;-70
2023/01/04 08:39:48;;;;;;;63.38;37.92;;;;;;;6.80;100.00;94179.22;5090695;28;20549;-70
2023/01/04 08:42:15;;;;;;;58.83;36.80;;;;;;;6.79;100.00;94178.44;5077045;28;20076;-70
2023/01/04 08:44:42;;;;;;;54.03;36.20;;;;;;;6.70;100.00;94163.28;5090801;28;20093;-70
2023/01/04 08:47:08;;;;;;;65.70;38.75;;;;;;;6.72;100.00;94186.91;5090613;28;20040;-70
2023/01/04 08:49:35;;;;;;;64.47;40.83;;;;;;;6.67;100.00;94183.06;5090441;28;20495;-70
2023/01/04 08:52:03;;;;;;;54.50;36.47;;;;;;;6.56;100.00;94180.84;5090226;28;20089;-70
2023/01/04 08:54:30;;;;;;;37.85;26.38;;;;;;;6.54;100.00;94170.00;5090203;28;20064;-70
2023/01/04 08:56:57;;;;;;;36.30;24.33;;;;;;;6.50;100.00;94178.94;5090403;28;20436;-70
2023/01/04 08:59:24;;;;;;;24.85;18.42;;;;;;;6.44;100.00;94182.13;5090323;28;20048;-70
2023/01/04 09:01:50;;;;;;;21.27;15.85;;;;;;;6.08;100.00;94150.06;5090080;28;20052;-70
2023/01/04 09:04:17;;;;;;;19.40;14.35;;;;;;;6.19;100.00;94177.81;5090321;28;20055;-70
2023/01/04 09:06:44;;;;;;;20.55;13.90;;;;;;;6.11;100.00;94178.59;5090170;28;20097;-70
2023/01/04 09:09:13;;;;;;;21.00;14.93;;;;;;;6.19;100.00;94175.25;5090432;28;20040;-70
2023/01/04 09:11:39;;;;;;;21.00;14.77;;;;;;;6.26;100.00;94175.44;5089894;28;20488;-70
2023/01/04 09:14:07;;;;;;;17.02;12.48;;;;;;;6.15;100.00;94176.50;5090379;28;20048;-70
2023/01/04 09:16:35;;;;;;;17.55;12.93;;;;;;;6.15;100.00;94168.88;5090090;28;20131;-70
2023/01/04 09:19:02;;;;;;;17.23;12.73;;;;;;;6.14;100.00;94168.09;5090219;28;20095;-70
2023/01/04 09:21:28;;;;;;;17.45;12.65;;;;;;;6.07;100.00;94173.97;5090053;28;20412;-70
2023/01/04 09:23:57;;;;;;;78.32;44.63;;;;;;;6.04;100.00;94167.44;5090110;28;20098;-70
2023/01/04 09:26:25;;;;;;;24.00;15.82;;;;;;;6.02;100.00;94161.66;5089667;28;20093;-70
2023/01/04 09:28:54;;;;;;;18.13;14.18;;;;;;;6.07;100.00;94158.66;5090192;28;20080;-70
2023/01/04 09:31:23;;;;;;;19.17;12.52;;;;;;;6.06;100.00;94157.84;5089772;28;20089;-70
2023/01/04 09:33:50;;;;;;;16.60;11.57;;;;;;;6.04;100.00;94162.31;5089735;28;20085;-70
2023/01/04 09:36:20;;;;;;;17.75;12.82;;;;;;;6.04;100.00;94159.78;5089330;28;20101;-70
2023/01/04 09:38:48;;;;;;;18.85;13.65;;;;;;;5.98;100.00;94150.19;5089719;28;20048;-70
2023/01/04 09:41:22;;;;;;;17.50;13.43;;;;;;;5.84;100.00;94161.78;5089974;28;20044;-70
2023/01/04 09:43:53;;;;;;;18.92;13.55;;;;;;;5.88;100.00;94150.34;5089730;28;20097;-70
2023/01/04 09:46:30;;;;;;;18.25;13.45;;;;;;;6.02;100.00;94151.47;5089237;28;20051;-71
2023/01/04 09:49:13;;;;;;;17.40;14.02;;;;;;;5.85;100.00;94156.53;5089256;28;20105;-71
2023/01/04 09:51:43;;;;;;;17.95;12.80;;;;;;;5.87;100.00;94158.91;5089180;28;20090;-70
2023/01/04 09:54:15;;;;;;;19.73;14.90;;;;;;;5.65;100.00;94153.44;5088962;28;20048;-70
2023/01/04 09:56:48;;;;;;;24.38;15.55;;;;;;;5.59;100.00;94149.78;5089160;28;20040;-70
2023/01/04 09:59:20;;;;;;;19.80;14.55;;;;;;;5.61;100.00;94154.72;5089261;28;20102;-70
2023/01/04 10:01:52;;;;;;;18.50;13.52;;;;;;;5.62;100.00;94151.22;5089427;28;20039;-70
2023/01/04 10:04:25;;;;;;;22.45;15.68;;;;;;;5.61;100.00;94149.63;5088996;28;20488;-70
2023/01/04 10:06:53;;;;;;;18.73;14.73;;;;;;;5.61;100.00;94137.66;5071172;28;20041;-70
2023/01/04 10:09:20;;;;;;;20.08;14.25;;;;;;;5.68;100.00;94147.25;5078130;28;20039;-71
2023/01/04 10:12:00;;;;;;;26.27;15.80;;;;;;;5.75;100.00;94145.69;5088494;28;20101;-71
2023/01/04 10:14:52;;;;;;;24.88;15.90;;;;;;;5.68;100.00;94148.06;5087874;28;20085;-70
2023/01/04 10:17:34;;;;;;;20.40;13.38;;;;;;;5.51;100.00;94154.06;5088575;28;20090;-71
2023/01/04 10:20:18;;;;;;;18.63;14.38;;;;;;;5.02;100.00;94073.97;5088489;28;20458;-71
2023/01/04 10:22:51;;;;;;;18.00;13.90;;;;;;;5.48;100.00;94144.97;5088628;28;20044;-71
2023/01/04 10:25:27;;;;;;;19.67;13.93;;;;;;;5.58;100.00;94142.28;5088302;28;20156;-70
2023/01/04 10:28:12;;;;;;;17.42;13.30;;;;;;;5.57;100.00;94146.59;5088530;28;20089;-70
2023/01/04 10:30:50;;;;;;;17.17;11.40;;;;;;;5.64;100.00;94146.75;5088153;28;20043;-70
2023/01/04 10:33:24;;;;;;;16.45;12.32;;;;;;;5.67;100.00;94160.94;5088240;28;20097;-70
2023/01/04 10:35:51;;;;;;;17.25;11.63;;;;;;;5.65;100.00;94147.56;5088304;28;20101;-71
2023/01/04 10:38:23;;;;;;;18.45;13.55;;;;;;;5.62;100.00;94148.69;5087908;28;20557;-71
2023/01/04 10:40:50;;;;;;;17.02;11.30;;;;;;;5.61;100.00;94152.19;5088185;28;20457;-71
2023/01/04 10:43:25;;;;;;;16.88;11.50;;;;;;;5.53;100.00;94145.31;5088515;28;20102;-70
2023/01/04 10:45:59;;;;;;;31.13;19.38;;;;;;;5.61;100.00;94154.72;5088056;28;20466;-70
2023/01/04 10:48:33;;;;;;;22.33;14.95;;;;;;;5.64;100.00;94149.31;5087885;28;20117;-70
2023/01/04 10:51:01;;;;;;;23.55;14.85;;;;;;;5.78;100.00;94153.00;5087899;28;20094;-70
2023/01/04 10:53:33;;;;;;;19.95;14.75;;;;;;;5.77;100.00;94148.06;5089510;28;20040;-70
2023/01/04 10:56:05;;;;;;;24.63;16.23;;;;;;;5.86;100.00;94134.38;5092223;28;20075;-70
2023/01/04 10:58:37;;;;;;;23.25;15.38;;;;;;;5.88;100.00;94135.03;5092559;28;20063;-70
2023/01/04 11:01:09;;;;;;;25.10;16.02;;;;;;;5.98;100.00;94138.22;5090774;28;20051;-70
2023/01/04 11:03:41;;;;;;;22.58;15.82;;;;;;;6.09;100.00;94129.50;5092560;28;20048;-70
2023/01/04 11:06:16;;;;;;;25.30;14.52;;;;;;;6.09;100.00;94133.78;5091899;28;20089;-71
2023/01/04 11:08:47;;;;;;;17.88;11.48;;;;;;;5.96;100.00;94132.47;5092573;28;20105;-70
2023/01/04 11:11:19;;;;;;;33.70;19.90;;;;;;;6.13;100.00;94132.53;5092538;28;20058;-70
2023/01/04 11:13:46;;;;;;;20.27;12.23;;;;;;;6.03;100.00;94117.38;5092554;28;20047;-70
2023/01/04 11:16:14;;;;;;;21.13;12.80;;;;;;;6.13;100.00;94133.34;5092308;28;20572;-70
2023/01/04 11:18:43;;;;;;;15.13;10.25;;;;;;;6.14;100.00;94124.72;5091914;28;20121;-70
2023/01/04 11:21:13;;;;;;;19.95;12.93;;;;;;;6.22;100.00;94135.88;5091537;28;20052;-70
2023/01/04 11:23:40;;;;;;;19.45;11.45;;;;;;;6.23;100.00;94129.81;5091775;28;20040;-70
2023/01/04 11:26:12;;;;;;;17.30;12.43;;;;;;;6.19;100.00;94125.97;5091956;28;20044;-70
2023/01/04 11:28:45;;;;;;;27.35;16.77;;;;;;;6.27;100.00;94116.59;5091367;28;20044;-70
2023/01/04 11:31:22;;;;;;;14.23;10.68;;;;;;;6.32;100.00;94113.53;5091478;28;20056;-70
2023/01/04 11:33:57;;;;;;;15.98;11.38;;;;;;;6.24;100.00;94122.00;5088753;28;20050;-70
2023/01/04 11:36:38;;;;;;;16.17;11.10;;;;;;;6.23;100.00;94115.31;5088457;28;20094;-70
2023/01/04 11:39:07;;;;;;;14.52;10.43;;;;;;;6.32;100.00;94108.44;5092137;28;20133;-70
2023/01/04 11:41:34;;;;;;;15.73;11.20;;;;;;;6.39;100.00;94108.59;5092094;28;20097;-70
2023/01/04 11:44:03;;;;;;;16.13;10.48;;;;;;;6.30;100.00;94101.91;5092031;28;20044;-70
2023/01/04 11:46:33;;;;;;;15.77;11.45;;;;;;;6.44;100.00;94105.56;5088495;28;20044;-70
2023/01/04 11:49:00;;;;;;;16.77;11.23;;;;;;;6.44;100.00;94097.91;5089293;28;20507;-70
2023/01/04 11:51:38;;;;;;;19.15;12.30;;;;;;;6.46;100.00;94095.97;5092247;28;20388;-70
2023/01/04 11:54:07;;;;;;;12.82;9.77;;;;;;;6.41;100.00;94104.13;5091467;28;20089;-71
2023/01/04 11:56:35;;;;;;;19.05;12.57;;;;;;;6.54;100.00;94101.88;5091782;28;20109;-71
2023/01/04 11:59:05;;;;;;;15.48;10.80;;;;;;;6.45;100.00;94095.19;5091470;28;20044;-71
2023/01/04 12:01:36;;;;;;;15.93;11.68;;;;;;;6.54;100.00;94085.78;5091492;28;20067;-70
2023/01/04 12:04:04;;;;;;;17.90;11.48;;;;;;;6.58;100.00;94092.16;5091181;28;20044;-70
2023/01/04 12:06:38;;;;;;;14.98;9.85;;;;;;;6.36;100.00;94068.09;5090908;28;20067;-70
2023/01/04 12:09:05;;;;;;;19.33;11.70;;;;;;;6.57;100.00;94077.78;5091711;28;20052;-70
2023/01/04 12:11:34;;;;;;;17.27;11.73;;;;;;;6.70;100.00;94081.59;5091588;28;20048;-71
2023/01/04 12:14:01;;;;;;;18.20;12.00;;;;;;;6.75;100.00;94082.69;5091078;28;20051;-70
2023/01/04 12:16:45;;;;;;;18.48;11.80;;;;;;;6.73;100.00;94082.06;5079743;28;20459;-70